sensor_id;sensor_type;location;lat;lon;timestamp;temperature;humidity
41762;DHT22;27441;50.860;0.258;2022-09-19T00:00:25;10.90;99.90
41762;DHT22;27441;50.860;0.258;2022-09-19T00:02:51;10.90;99.90
41762;DHT22;27441;50.860;0.258;2022-09-19T00:05:17;10.80;99.90
41762;DHT22;27441;50.860;0.258;2022-09-19T00:07:42;10.80;99.90
41762;DHT22;27441;50.860;0.258;2022-09-19T00:10:08;10.70;99.90
41762;DHT22;27441;50.860;0.258;2022-09-19T00:12:34;10.70;99.90
41762;DHT22;27441;50.860;0.258;2022-09-19T00:15:00;10.70;99.90
41762;DHT22;27441;50.860;0.258;2022-09-19T00:17:25;10.60;99.90
41762;DHT22;27441;50.860;0.258;2022-09-19T00:19:51;10.60;99.90
41762;DHT22;27441;50.860;0.258;2022-09-19T00:22:17;10.50;99.90
41762;DHT22;27441;50.860;0.258;2022-09-19T00:24:42;10.50;99.90
41762;DHT22;27441;50.860;0.258;2022-09-19T00:27:12;10.50;99.90
41762;DHT22;27441;50.860;0.258;2022-09-19T00:29:38;10.40;99.90
41762;DHT22;27441;50.860;0.258;2022-09-19T00:32:05;10.40;99.90
41762;DHT22;27441;50.860;0.258;2022-09-19T00:34:33;10.40;99.90
41762;DHT22;27441;50.860;0.258;2022-09-19T00:36:58;10.30;99.90
41762;DHT22;27441;50.860;0.258;2022-09-19T00:39:24;10.30;99.90
41762;DHT22;27441;50.860;0.258;2022-09-19T00:41:50;10.20;99.90
41762;DHT22;27441;50.860;0.258;2022-09-19T00:46:52;10.10;99.90
41762;DHT22;27441;50.860;0.258;2022-09-19T00:49:19;10.00;99.90
41762;DHT22;27441;50.860;0.258;2022-09-19T00:51:50;10.10;99.90
41762;DHT22;27441;50.860;0.258;2022-09-19T00:54:17;10.10;99.90
41762;DHT22;27441;50.860;0.258;2022-09-19T00:56:46;10.10;99.90
41762;DHT22;27441;50.860;0.258;2022-09-19T00:59:13;10.00;99.90
41762;DHT22;27441;50.860;0.258;2022-09-19T01:01:39;10.00;99.90
41762;DHT22;27441;50.860;0.258;2022-09-19T01:04:15;10.00;99.90
41762;DHT22;27441;50.860;0.258;2022-09-19T01:06:52;10.00;99.90
41762;DHT22;27441;50.860;0.258;2022-09-19T01:09:26;10.00;99.90
41762;DHT22;27441;50.860;0.258;2022-09-19T01:14:34;9.90;99.90
41762;DHT22;27441;50.860;0.258;2022-09-19T01:19:49;9.90;99.90
41762;DHT22;27441;50.860;0.258;2022-09-19T01:22:23;9.80;99.90
41762;DHT22;27441;50.860;0.258;2022-09-19T01:24:55;9.80;99.90
41762;DHT22;27441;50.860;0.258;2022-09-19T01:27:34;9.80;99.90
41762;DHT22;27441;50.860;0.258;2022-09-19T01:30:08;9.80;99.90
41762;DHT22;27441;50.860;0.258;2022-09-19T01:32:35;9.80;99.90
41762;DHT22;27441;50.860;0.258;2022-09-19T01:35:04;9.80;99.90
41762;DHT22;27441;50.860;0.258;2022-09-19T01:37:32;9.80;99.90
41762;DHT22;27441;50.860;0.258;2022-09-19T01:40:00;9.80;99.90
41762;DHT22;27441;50.860;0.258;2022-09-19T01:42:27;9.80;99.90
41762;DHT22;27441;50.860;0.258;2022-09-19T01:44:52;9.70;99.90
41762;DHT22;27441;50.860;0.258;2022-09-19T01:52:29;9.70;99.90
41762;DHT22;27441;50.860;0.258;2022-09-19T02:00:16;9.60;99.90
41762;DHT22;27441;50.860;0.258;2022-09-19T02:03:00;9.50;99.90
41762;DHT22;27441;50.860;0.258;2022-09-19T02:05:49;9.50;99.90
41762;DHT22;27441;50.860;0.258;2022-09-19T02:08:21;9.40;99.90
41762;DHT22;27441;50.860;0.258;2022-09-19T02:10:52;9.40;99.90
41762;DHT22;27441;50.860;0.258;2022-09-19T02:13:26;9.40;99.90
41762;DHT22;27441;50.860;0.258;2022-09-19T02:15:55;9.40;99.90
41762;DHT22;27441;50.860;0.258;2022-09-19T02:18:26;9.30;99.90
41762;DHT22;27441;50.860;0.258;2022-09-19T02:20:55;9.40;99.90
41762;DHT22;27441;50.860;0.258;2022-09-19T02:23:34;9.40;99.90
41762;DHT22;27441;50.860;0.258;2022-09-19T02:26:01;9.30;99.90
41762;DHT22;27441;50.860;0.258;2022-09-19T02:28:30;9.30;99.90
41762;DHT22;27441;50.860;0.258;2022-09-19T02:30:57;9.30;99.90
41762;DHT22;27441;50.860;0.258;2022-09-19T02:33:23;9.30;99.90
41762;DHT22;27441;50.860;0.258;2022-09-19T02:35:55;9.30;99.90
41762;DHT22;27441;50.860;0.258;2022-09-19T02:38:25;9.30;99.90
41762;DHT22;27441;50.860;0.258;2022-09-19T02:41:03;9.30;99.90
41762;DHT22;27441;50.860;0.258;2022-09-19T02:43:40;9.40;99.90
41762;DHT22;27441;50.860;0.258;2022-09-19T02:46:15;9.40;99.90
41762;DHT22;27441;50.860;0.258;2022-09-19T02:48:45;9.40;99.90
41762;DHT22;27441;50.860;0.258;2022-09-19T02:51:34;9.50;99.90
41762;DHT22;27441;50.860;0.258;2022-09-19T02:53:58;9.50;99.90
41762;DHT22;27441;50.860;0.258;2022-09-19T02:56:26;9.50;99.90
41762;DHT22;27441;50.860;0.258;2022-09-19T02:58:58;9.50;99.90
41762;DHT22;27441;50.860;0.258;2022-09-19T03:01:26;9.50;99.90
41762;DHT22;27441;50.860;0.258;2022-09-19T03:03:54;9.50;99.90
41762;DHT22;27441;50.860;0.258;2022-09-19T03:09:15;9.50;99.90
41762;DHT22;27441;50.860;0.258;2022-09-19T03:11:43;9.50;99.90
41762;DHT22;27441;50.860;0.258;2022-09-19T03:14:12;9.40;99.90
41762;DHT22;27441;50.860;0.258;2022-09-19T03:16:41;9.40;99.90
41762;DHT22;27441;50.860;0.258;2022-09-19T03:19:08;9.40;99.90
41762;DHT22;27441;50.860;0.258;2022-09-19T03:21:35;9.40;99.90
41762;DHT22;27441;50.860;0.258;2022-09-19T03:24:03;9.40;99.90
41762;DHT22;27441;50.860;0.258;2022-09-19T03:26:32;9.40;99.90
41762;DHT22;27441;50.860;0.258;2022-09-19T03:29:00;9.50;99.90
41762;DHT22;27441;50.860;0.258;2022-09-19T03:31:26;9.50;99.90
41762;DHT22;27441;50.860;0.258;2022-09-19T03:33:52;9.50;99.90
41762;DHT22;27441;50.860;0.258;2022-09-19T03:36:18;9.50;99.90
41762;DHT22;27441;50.860;0.258;2022-09-19T03:38:44;9.50;99.90
41762;DHT22;27441;50.860;0.258;2022-09-19T03:41:13;9.60;99.90
41762;DHT22;27441;50.860;0.258;2022-09-19T03:43:39;9.60;99.90
41762;DHT22;27441;50.860;0.258;2022-09-19T03:46:08;9.60;99.90
41762;DHT22;27441;50.860;0.258;2022-09-19T03:48:36;9.60;99.90
41762;DHT22;27441;50.860;0.258;2022-09-19T03:51:02;9.70;99.90
41762;DHT22;27441;50.860;0.258;2022-09-19T03:53:28;9.70;99.90
41762;DHT22;27441;50.860;0.258;2022-09-19T03:55:53;9.70;99.90
41762;DHT22;27441;50.860;0.258;2022-09-19T03:58:20;9.80;99.90
41762;DHT22;27441;50.860;0.258;2022-09-19T04:00:46;9.80;99.90
41762;DHT22;27441;50.860;0.258;2022-09-19T04:03:11;9.80;99.90
41762;DHT22;27441;50.860;0.258;2022-09-19T04:05:37;9.80;99.90
41762;DHT22;27441;50.860;0.258;2022-09-19T04:08:03;9.90;99.90
41762;DHT22;27441;50.860;0.258;2022-09-19T04:10:29;9.90;99.90
41762;DHT22;27441;50.860;0.258;2022-09-19T04:12:54;9.90;99.90
41762;DHT22;27441;50.860;0.258;2022-09-19T04:15:21;9.90;99.90
41762;DHT22;27441;50.860;0.258;2022-09-19T04:17:47;10.00;99.90
41762;DHT22;27441;50.860;0.258;2022-09-19T04:20:12;10.00;99.90
41762;DHT22;27441;50.860;0.258;2022-09-19T04:22:39;10.00;99.90
41762;DHT22;27441;50.860;0.258;2022-09-19T04:25:05;10.00;99.90
41762;DHT22;27441;50.860;0.258;2022-09-19T04:27:30;10.00;99.90
41762;DHT22;27441;50.860;0.258;2022-09-19T04:29:56;10.10;99.90
41762;DHT22;27441;50.860;0.258;2022-09-19T04:32:21;10.10;99.90
41762;DHT22;27441;50.860;0.258;2022-09-19T04:34:47;10.10;99.90
41762;DHT22;27441;50.860;0.258;2022-09-19T04:37:14;10.20;99.90
41762;DHT22;27441;50.860;0.258;2022-09-19T04:39:40;10.20;99.90
41762;DHT22;27441;50.860;0.258;2022-09-19T04:42:06;10.20;99.90
41762;DHT22;27441;50.860;0.258;2022-09-19T04:44:32;10.30;99.90
41762;DHT22;27441;50.860;0.258;2022-09-19T04:46:57;10.30;99.90
41762;DHT22;27441;50.860;0.258;2022-09-19T04:49:23;10.40;99.90
41762;DHT22;27441;50.860;0.258;2022-09-19T04:52:00;10.40;99.90
41762;DHT22;27441;50.860;0.258;2022-09-19T04:54:26;10.40;99.90
41762;DHT22;27441;50.860;0.258;2022-09-19T04:56:51;10.40;99.90
41762;DHT22;27441;50.860;0.258;2022-09-19T04:59:17;10.40;99.90
41762;DHT22;27441;50.860;0.258;2022-09-19T05:01:42;10.50;99.90
41762;DHT22;27441;50.860;0.258;2022-09-19T05:04:09;10.50;99.90
41762;DHT22;27441;50.860;0.258;2022-09-19T05:06:34;10.50;99.90
41762;DHT22;27441;50.860;0.258;2022-09-19T05:09:00;10.50;99.90
41762;DHT22;27441;50.860;0.258;2022-09-19T05:11:25;10.50;99.90
41762;DHT22;27441;50.860;0.258;2022-09-19T05:13:52;10.50;99.90
41762;DHT22;27441;50.860;0.258;2022-09-19T05:16:18;10.60;99.90
41762;DHT22;27441;50.860;0.258;2022-09-19T05:18:44;10.60;99.90
41762;DHT22;27441;50.860;0.258;2022-09-19T05:21:11;10.60;99.90
41762;DHT22;27441;50.860;0.258;2022-09-19T05:23:38;10.60;99.90
41762;DHT22;27441;50.860;0.258;2022-09-19T05:26:07;10.60;99.90
41762;DHT22;27441;50.860;0.258;2022-09-19T05:28:33;10.60;99.90
41762;DHT22;27441;50.860;0.258;2022-09-19T05:30:59;10.70;99.90
41762;DHT22;27441;50.860;0.258;2022-09-19T05:33:30;10.70;99.90
41762;DHT22;27441;50.860;0.258;2022-09-19T05:35:57;10.60;99.90
41762;DHT22;27441;50.860;0.258;2022-09-19T05:38:29;10.60;99.90
41762;DHT22;27441;50.860;0.258;2022-09-19T05:40:55;10.60;99.90
41762;DHT22;27441;50.860;0.258;2022-09-19T05:43:22;10.50;99.90
41762;DHT22;27441;50.860;0.258;2022-09-19T05:45:48;10.50;99.90
41762;DHT22;27441;50.860;0.258;2022-09-19T05:48:15;10.50;99.90
41762;DHT22;27441;50.860;0.258;2022-09-19T05:50:45;10.50;99.90
41762;DHT22;27441;50.860;0.258;2022-09-19T05:53:11;10.40;99.90
41762;DHT22;27441;50.860;0.258;2022-09-19T05:55:56;10.40;99.90
41762;DHT22;27441;50.860;0.258;2022-09-19T05:58:21;10.40;99.90
41762;DHT22;27441;50.860;0.258;2022-09-19T06:00:47;10.30;99.90
41762;DHT22;27441;50.860;0.258;2022-09-19T06:03:14;10.30;99.90
41762;DHT22;27441;50.860;0.258;2022-09-19T06:05:44;10.30;99.90
41762;DHT22;27441;50.860;0.258;2022-09-19T06:08:13;10.40;99.90
41762;DHT22;27441;50.860;0.258;2022-09-19T06:10:42;10.40;99.90
41762;DHT22;27441;50.860;0.258;2022-09-19T06:13:41;10.40;99.90
41762;DHT22;27441;50.860;0.258;2022-09-19T06:16:18;10.40;99.90
41762;DHT22;27441;50.860;0.258;2022-09-19T06:18:44;10.40;99.90
41762;DHT22;27441;50.860;0.258;2022-09-19T06:21:10;10.50;99.90
41762;DHT22;27441;50.860;0.258;2022-09-19T06:23:35;10.50;99.90
41762;DHT22;27441;50.860;0.258;2022-09-19T06:26:01;10.60;99.90
41762;DHT22;27441;50.860;0.258;2022-09-19T06:28:27;10.60;99.90
41762;DHT22;27441;50.860;0.258;2022-09-19T06:30:52;10.60;99.90
41762;DHT22;27441;50.860;0.258;2022-09-19T06:33:18;10.60;99.90
41762;DHT22;27441;50.860;0.258;2022-09-19T06:35:44;10.60;99.90
41762;DHT22;27441;50.860;0.258;2022-09-19T06:38:10;10.60;99.90
41762;DHT22;27441;50.860;0.258;2022-09-19T06:40:36;10.70;99.90
41762;DHT22;27441;50.860;0.258;2022-09-19T06:43:04;10.70;99.90
41762;DHT22;27441;50.860;0.258;2022-09-19T06:45:31;10.70;99.90
41762;DHT22;27441;50.860;0.258;2022-09-19T06:47:57;10.80;99.90
41762;DHT22;27441;50.860;0.258;2022-09-19T06:50:23;10.90;99.90
41762;DHT22;27441;50.860;0.258;2022-09-19T06:52:49;11.00;99.90
41762;DHT22;27441;50.860;0.258;2022-09-19T06:55:15;11.00;99.90
41762;DHT22;27441;50.860;0.258;2022-09-19T06:57:40;11.10;99.90
41762;DHT22;27441;50.860;0.258;2022-09-19T07:00:06;11.20;99.90
41762;DHT22;27441;50.860;0.258;2022-09-19T07:02:32;11.20;99.90
41762;DHT22;27441;50.860;0.258;2022-09-19T07:04:57;11.30;99.90
41762;DHT22;27441;50.860;0.258;2022-09-19T07:07:23;11.40;99.90
41762;DHT22;27441;50.860;0.258;2022-09-19T07:09:48;11.50;99.90
41762;DHT22;27441;50.860;0.258;2022-09-19T07:12:14;11.60;99.90
41762;DHT22;27441;50.860;0.258;2022-09-19T07:14:40;11.60;99.90
41762;DHT22;27441;50.860;0.258;2022-09-19T07:17:06;11.70;99.90
41762;DHT22;27441;50.860;0.258;2022-09-19T07:19:31;11.70;99.90
41762;DHT22;27441;50.860;0.258;2022-09-19T07:21:57;11.70;99.90
41762;DHT22;27441;50.860;0.258;2022-09-19T07:24:23;11.80;99.90
41762;DHT22;27441;50.860;0.258;2022-09-19T07:26:49;11.80;99.90
41762;DHT22;27441;50.860;0.258;2022-09-19T07:29:15;11.80;99.90
41762;DHT22;27441;50.860;0.258;2022-09-19T07:31:40;11.90;99.90
41762;DHT22;27441;50.860;0.258;2022-09-19T07:34:06;11.90;99.90
41762;DHT22;27441;50.860;0.258;2022-09-19T07:36:32;12.00;99.90
41762;DHT22;27441;50.860;0.258;2022-09-19T07:38:58;12.00;99.90
41762;DHT22;27441;50.860;0.258;2022-09-19T07:41:23;12.00;99.90
41762;DHT22;27441;50.860;0.258;2022-09-19T07:43:49;12.00;99.90
41762;DHT22;27441;50.860;0.258;2022-09-19T07:46:15;12.00;99.90
41762;DHT22;27441;50.860;0.258;2022-09-19T07:48:42;12.10;99.90
41762;DHT22;27441;50.860;0.258;2022-09-19T07:51:08;12.20;99.90
41762;DHT22;27441;50.860;0.258;2022-09-19T07:53:34;12.20;99.90
41762;DHT22;27441;50.860;0.258;2022-09-19T07:56:00;12.30;99.90
41762;DHT22;27441;50.860;0.258;2022-09-19T07:58:27;12.20;99.90
41762;DHT22;27441;50.860;0.258;2022-09-19T08:00:52;12.40;99.90
41762;DHT22;27441;50.860;0.258;2022-09-19T08:03:19;12.40;99.90
41762;DHT22;27441;50.860;0.258;2022-09-19T08:05:46;12.40;99.90
41762;DHT22;27441;50.860;0.258;2022-09-19T08:08:13;12.50;99.90
41762;DHT22;27441;50.860;0.258;2022-09-19T08:10:40;12.60;99.90
41762;DHT22;27441;50.860;0.258;2022-09-19T08:13:06;12.70;99.90
41762;DHT22;27441;50.860;0.258;2022-09-19T08:15:32;12.70;99.90
41762;DHT22;27441;50.860;0.258;2022-09-19T08:20:24;12.90;99.90
41762;DHT22;27441;50.860;0.258;2022-09-19T08:25:40;13.00;99.90
41762;DHT22;27441;50.860;0.258;2022-09-19T08:28:12;13.20;99.90
41762;DHT22;27441;50.860;0.258;2022-09-19T08:30:37;13.30;99.90
41762;DHT22;27441;50.860;0.258;2022-09-19T08:33:03;13.30;99.90
41762;DHT22;27441;50.860;0.258;2022-09-19T08:35:32;13.30;99.90
41762;DHT22;27441;50.860;0.258;2022-09-19T08:38:03;13.30;99.90
41762;DHT22;27441;50.860;0.258;2022-09-19T08:40:30;13.30;99.90
41762;DHT22;27441;50.860;0.258;2022-09-19T08:43:12;13.40;99.90
41762;DHT22;27441;50.860;0.258;2022-09-19T08:45:47;13.40;99.90
41762;DHT22;27441;50.860;0.258;2022-09-19T08:48:22;13.50;99.90
41762;DHT22;27441;50.860;0.258;2022-09-19T08:51:23;13.60;99.90
41762;DHT22;27441;50.860;0.258;2022-09-19T08:53:42;13.70;99.90
41762;DHT22;27441;50.860;0.258;2022-09-19T08:56:09;13.90;99.90
41762;DHT22;27441;50.860;0.258;2022-09-19T08:58:37;13.90;99.90
41762;DHT22;27441;50.860;0.258;2022-09-19T09:01:08;13.90;99.90
41762;DHT22;27441;50.860;0.258;2022-09-19T09:03:36;14.00;99.90
41762;DHT22;27441;50.860;0.258;2022-09-19T09:06:08;14.10;99.90
41762;DHT22;27441;50.860;0.258;2022-09-19T09:11:17;14.40;99.90
41762;DHT22;27441;50.860;0.258;2022-09-19T09:24:06;14.80;99.90
41762;DHT22;27441;50.860;0.258;2022-09-19T09:26:35;14.90;99.90
41762;DHT22;27441;50.860;0.258;2022-09-19T09:31:40;15.00;99.90
41762;DHT22;27441;50.860;0.258;2022-09-19T09:34:26;15.10;99.90
41762;DHT22;27441;50.860;0.258;2022-09-19T09:37:01;15.10;99.90
41762;DHT22;27441;50.860;0.258;2022-09-19T09:39:42;15.20;99.90
41762;DHT22;27441;50.860;0.258;2022-09-19T09:50:47;15.30;99.90
41762;DHT22;27441;50.860;0.258;2022-09-19T09:55:45;15.30;99.90
41762;DHT22;27441;50.860;0.258;2022-09-19T09:58:34;15.30;99.90
41762;DHT22;27441;50.860;0.258;2022-09-19T10:03:56;15.30;99.90
41762;DHT22;27441;50.860;0.258;2022-09-19T10:06:33;15.30;99.90
41762;DHT22;27441;50.860;0.258;2022-09-19T10:11:36;15.30;99.90
41762;DHT22;27441;50.860;0.258;2022-09-19T10:14:07;15.40;99.90
41762;DHT22;27441;50.860;0.258;2022-09-19T10:16:38;15.50;99.90
41762;DHT22;27441;50.860;0.258;2022-09-19T10:21:51;15.70;99.90
41762;DHT22;27441;50.860;0.258;2022-09-19T10:27:08;15.90;99.90
41762;DHT22;27441;50.860;0.258;2022-09-19T10:29:35;15.90;99.90
41762;DHT22;27441;50.860;0.258;2022-09-19T10:32:06;16.00;99.90
41762;DHT22;27441;50.860;0.258;2022-09-19T10:34:33;16.10;99.90
41762;DHT22;27441;50.860;0.258;2022-09-19T10:37:01;16.20;99.90
41762;DHT22;27441;50.860;0.258;2022-09-19T10:39:40;16.30;99.90
41762;DHT22;27441;50.860;0.258;2022-09-19T10:44:50;16.50;99.90
41762;DHT22;27441;50.860;0.258;2022-09-19T10:47:17;16.80;99.90
41762;DHT22;27441;50.860;0.258;2022-09-19T10:49:44;17.40;99.90
41762;DHT22;27441;50.860;0.258;2022-09-19T10:52:10;18.00;99.90
41762;DHT22;27441;50.860;0.258;2022-09-19T10:54:39;18.50;99.90
41762;DHT22;27441;50.860;0.258;2022-09-19T10:57:27;19.10;99.90
41762;DHT22;27441;50.860;0.258;2022-09-19T10:59:51;19.50;99.90
41762;DHT22;27441;50.860;0.258;2022-09-19T11:02:21;20.00;99.90
41762;DHT22;27441;50.860;0.258;2022-09-19T11:07:22;20.70;99.90
41762;DHT22;27441;50.860;0.258;2022-09-19T11:09:51;21.00;99.90
41762;DHT22;27441;50.860;0.258;2022-09-19T11:12:24;21.20;99.90
41762;DHT22;27441;50.860;0.258;2022-09-19T11:14:49;21.60;99.90
41762;DHT22;27441;50.860;0.258;2022-09-19T11:22:18;22.40;99.90
41762;DHT22;27441;50.860;0.258;2022-09-19T11:27:41;22.40;99.90
41762;DHT22;27441;50.860;0.258;2022-09-19T11:30:11;22.40;99.90
41762;DHT22;27441;50.860;0.258;2022-09-19T11:35:22;22.50;99.90
41762;DHT22;27441;50.860;0.258;2022-09-19T11:45:41;22.30;99.90
41762;DHT22;27441;50.860;0.258;2022-09-19T11:56:19;22.00;99.90
41762;DHT22;27441;50.860;0.258;2022-09-19T12:09:17;19.10;99.90
41762;DHT22;27441;50.860;0.258;2022-09-19T12:11:45;18.80;99.90
41762;DHT22;27441;50.860;0.258;2022-09-19T12:14:18;18.50;99.90
41762;DHT22;27441;50.860;0.258;2022-09-19T12:16:54;18.40;99.90
41762;DHT22;27441;50.860;0.258;2022-09-19T12:22:00;18.10;99.90
41762;DHT22;27441;50.860;0.258;2022-09-19T12:24:29;18.20;99.90
41762;DHT22;27441;50.860;0.258;2022-09-19T12:30:03;18.40;99.90
41762;DHT22;27441;50.860;0.258;2022-09-19T12:32:36;18.40;99.90
41762;DHT22;27441;50.860;0.258;2022-09-19T12:35:19;18.50;99.90
41762;DHT22;27441;50.860;0.258;2022-09-19T12:40:42;18.30;99.90
41762;DHT22;27441;50.860;0.258;2022-09-19T12:45:56;18.10;99.90
41762;DHT22;27441;50.860;0.258;2022-09-19T12:51:07;18.00;99.90
41762;DHT22;27441;50.860;0.258;2022-09-19T12:53:42;18.00;99.90
41762;DHT22;27441;50.860;0.258;2022-09-19T12:56:20;18.00;99.90
41762;DHT22;27441;50.860;0.258;2022-09-19T13:01:21;18.30;99.90
41762;DHT22;27441;50.860;0.258;2022-09-19T13:03:52;18.40;99.90
41762;DHT22;27441;50.860;0.258;2022-09-19T13:06:21;18.50;99.90
41762;DHT22;27441;50.860;0.258;2022-09-19T13:08:51;18.60;99.90
41762;DHT22;27441;50.860;0.258;2022-09-19T13:11:52;18.60;99.90
41762;DHT22;27441;50.860;0.258;2022-09-19T13:14:12;18.60;99.90
41762;DHT22;27441;50.860;0.258;2022-09-19T13:16:39;18.60;99.90
41762;DHT22;27441;50.860;0.258;2022-09-19T13:19:44;18.60;99.90
41762;DHT22;27441;50.860;0.258;2022-09-19T13:22:28;18.40;99.90
41762;DHT22;27441;50.860;0.258;2022-09-19T13:25:19;18.20;99.90
41762;DHT22;27441;50.860;0.258;2022-09-19T13:27:46;17.90;99.90
41762;DHT22;27441;50.860;0.258;2022-09-19T13:30:48;17.80;99.90
41762;DHT22;27441;50.860;0.258;2022-09-19T13:35:57;17.60;99.90
41762;DHT22;27441;50.860;0.258;2022-09-19T13:38:37;17.60;99.90
41762;DHT22;27441;50.860;0.258;2022-09-19T13:41:07;17.60;99.90
41762;DHT22;27441;50.860;0.258;2022-09-19T13:43:40;17.60;99.90
41762;DHT22;27441;50.860;0.258;2022-09-19T13:46:15;17.70;99.90
41762;DHT22;27441;50.860;0.258;2022-09-19T13:56:37;17.40;99.90
41762;DHT22;27441;50.860;0.258;2022-09-19T14:01:36;17.30;99.90
41762;DHT22;27441;50.860;0.258;2022-09-19T14:04:02;17.40;99.90
41762;DHT22;27441;50.860;0.258;2022-09-19T14:06:56;17.50;99.90
41762;DHT22;27441;50.860;0.258;2022-09-19T14:11:52;17.50;99.90
41762;DHT22;27441;50.860;0.258;2022-09-19T14:19:45;17.40;99.90
41762;DHT22;27441;50.860;0.258;2022-09-19T14:25:17;17.40;99.90
41762;DHT22;27441;50.860;0.258;2022-09-19T14:30:44;17.50;99.90
41762;DHT22;27441;50.860;0.258;2022-09-19T14:35:47;17.50;99.90
41762;DHT22;27441;50.860;0.258;2022-09-19T14:41:03;17.60;99.90
41762;DHT22;27441;50.860;0.258;2022-09-19T14:43:52;17.60;99.90
41762;DHT22;27441;50.860;0.258;2022-09-19T14:46:24;17.60;99.90
41762;DHT22;27441;50.860;0.258;2022-09-19T14:51:36;17.60;99.90
41762;DHT22;27441;50.860;0.258;2022-09-19T14:54:17;17.60;99.90
41762;DHT22;27441;50.860;0.258;2022-09-19T14:57:19;17.60;99.90
41762;DHT22;27441;50.860;0.258;2022-09-19T14:59:39;17.50;99.90
41762;DHT22;27441;50.860;0.258;2022-09-19T15:04:46;17.40;99.90
41762;DHT22;27441;50.860;0.258;2022-09-19T15:07:15;17.30;99.90
41762;DHT22;27441;50.860;0.258;2022-09-19T15:09:40;17.30;99.90
41762;DHT22;27441;50.860;0.258;2022-09-19T15:12:14;17.30;99.90
41762;DHT22;27441;50.860;0.258;2022-09-19T15:14:46;17.20;99.90
41762;DHT22;27441;50.860;0.258;2022-09-19T15:17:16;17.20;99.90
41762;DHT22;27441;50.860;0.258;2022-09-19T15:19:44;17.20;99.90
41762;DHT22;27441;50.860;0.258;2022-09-19T15:24:56;17.10;99.90
41762;DHT22;27441;50.860;0.258;2022-09-19T15:27:27;17.10;99.90
41762;DHT22;27441;50.860;0.258;2022-09-19T15:29:54;17.10;99.90
41762;DHT22;27441;50.860;0.258;2022-09-19T15:32:29;17.10;99.90
41762;DHT22;27441;50.860;0.258;2022-09-19T15:35:05;17.00;99.90
41762;DHT22;27441;50.860;0.258;2022-09-19T15:37:34;17.00;99.90
41762;DHT22;27441;50.860;0.258;2022-09-19T15:40:00;16.90;99.90
41762;DHT22;27441;50.860;0.258;2022-09-19T15:42:26;16.80;99.90
41762;DHT22;27441;50.860;0.258;2022-09-19T15:44:53;16.80;99.90
41762;DHT22;27441;50.860;0.258;2022-09-19T15:47:19;16.70;99.90
41762;DHT22;27441;50.860;0.258;2022-09-19T15:49:48;16.70;99.90
41762;DHT22;27441;50.860;0.258;2022-09-19T15:52:18;16.70;99.90
41762;DHT22;27441;50.860;0.258;2022-09-19T15:54:51;16.70;99.90
41762;DHT22;27441;50.860;0.258;2022-09-19T15:57:33;16.80;99.90
41762;DHT22;27441;50.860;0.258;2022-09-19T16:02:56;16.90;99.90
41762;DHT22;27441;50.860;0.258;2022-09-19T16:05:25;16.90;99.90
41762;DHT22;27441;50.860;0.258;2022-09-19T16:07:52;16.90;99.90
41762;DHT22;27441;50.860;0.258;2022-09-19T16:10:38;16.90;99.90
41762;DHT22;27441;50.860;0.258;2022-09-19T16:13:49;16.90;99.90
41762;DHT22;27441;50.860;0.258;2022-09-19T16:15:52;16.90;99.90
41762;DHT22;27441;50.860;0.258;2022-09-19T16:18:18;16.90;99.90
41762;DHT22;27441;50.860;0.258;2022-09-19T16:20:48;16.80;99.90
41762;DHT22;27441;50.860;0.258;2022-09-19T16:23:18;16.80;99.90
41762;DHT22;27441;50.860;0.258;2022-09-19T16:28:17;16.60;99.90
41762;DHT22;27441;50.860;0.258;2022-09-19T16:30:50;16.60;99.90
41762;DHT22;27441;50.860;0.258;2022-09-19T16:33:16;16.50;99.90
41762;DHT22;27441;50.860;0.258;2022-09-19T16:35:43;16.40;99.90
41762;DHT22;27441;50.860;0.258;2022-09-19T16:38:09;16.40;99.90
41762;DHT22;27441;50.860;0.258;2022-09-19T16:40:34;16.40;99.90
41762;DHT22;27441;50.860;0.258;2022-09-19T16:43:28;16.40;99.90
41762;DHT22;27441;50.860;0.258;2022-09-19T16:45:46;16.40;99.90
41762;DHT22;27441;50.860;0.258;2022-09-19T16:48:13;16.40;99.90
41762;DHT22;27441;50.860;0.258;2022-09-19T16:50:40;16.40;99.90
41762;DHT22;27441;50.860;0.258;2022-09-19T16:53:08;16.40;99.90
41762;DHT22;27441;50.860;0.258;2022-09-19T16:55:38;16.40;99.90
41762;DHT22;27441;50.860;0.258;2022-09-19T16:58:07;16.40;99.90
41762;DHT22;27441;50.860;0.258;2022-09-19T17:00:35;16.30;99.90
41762;DHT22;27441;50.860;0.258;2022-09-19T17:03:00;16.30;99.90
41762;DHT22;27441;50.860;0.258;2022-09-19T17:05:27;16.30;99.90
41762;DHT22;27441;50.860;0.258;2022-09-19T17:07:54;16.30;99.90
41762;DHT22;27441;50.860;0.258;2022-09-19T17:10:21;16.20;99.90
41762;DHT22;27441;50.860;0.258;2022-09-19T17:12:47;16.20;99.90
41762;DHT22;27441;50.860;0.258;2022-09-19T17:17:44;16.20;99.90
41762;DHT22;27441;50.860;0.258;2022-09-19T17:20:10;16.20;99.90
41762;DHT22;27441;50.860;0.258;2022-09-19T17:22:35;16.20;99.90
41762;DHT22;27441;50.860;0.258;2022-09-19T17:25:01;16.20;99.90
41762;DHT22;27441;50.860;0.258;2022-09-19T17:27:27;16.10;99.90
41762;DHT22;27441;50.860;0.258;2022-09-19T17:29:53;16.10;99.90
41762;DHT22;27441;50.860;0.258;2022-09-19T17:32:18;16.00;99.90
41762;DHT22;27441;50.860;0.258;2022-09-19T17:34:46;16.00;99.90
41762;DHT22;27441;50.860;0.258;2022-09-19T17:37:11;15.90;99.90
41762;DHT22;27441;50.860;0.258;2022-09-19T17:39:37;15.90;99.90
41762;DHT22;27441;50.860;0.258;2022-09-19T17:42:02;15.80;99.90
41762;DHT22;27441;50.860;0.258;2022-09-19T17:44:29;15.70;99.90
41762;DHT22;27441;50.860;0.258;2022-09-19T17:46:54;15.60;99.90
41762;DHT22;27441;50.860;0.258;2022-09-19T17:49:20;15.60;99.90
41762;DHT22;27441;50.860;0.258;2022-09-19T17:51:45;15.50;99.90
41762;DHT22;27441;50.860;0.258;2022-09-19T17:54:11;15.40;99.90
41762;DHT22;27441;50.860;0.258;2022-09-19T17:56:39;15.30;99.90
41762;DHT22;27441;50.860;0.258;2022-09-19T17:59:05;15.20;99.90
41762;DHT22;27441;50.860;0.258;2022-09-19T18:01:30;15.10;99.90
41762;DHT22;27441;50.860;0.258;2022-09-19T18:04:15;15.00;99.90
41762;DHT22;27441;50.860;0.258;2022-09-19T18:06:41;14.90;99.90
41762;DHT22;27441;50.860;0.258;2022-09-19T18:09:07;14.80;99.90
41762;DHT22;27441;50.860;0.258;2022-09-19T18:11:34;14.70;99.90
41762;DHT22;27441;50.860;0.258;2022-09-19T18:14:00;14.60;99.90
41762;DHT22;27441;50.860;0.258;2022-09-19T18:16:32;14.50;99.90
41762;DHT22;27441;50.860;0.258;2022-09-19T18:18:58;14.50;99.90
41762;DHT22;27441;50.860;0.258;2022-09-19T18:21:25;14.40;99.90
41762;DHT22;27441;50.860;0.258;2022-09-19T18:23:50;14.40;99.90
41762;DHT22;27441;50.860;0.258;2022-09-19T18:26:19;14.30;99.90
41762;DHT22;27441;50.860;0.258;2022-09-19T18:28:46;14.30;99.90
41762;DHT22;27441;50.860;0.258;2022-09-19T18:31:16;14.30;99.90
41762;DHT22;27441;50.860;0.258;2022-09-19T18:33:42;14.40;99.90
41762;DHT22;27441;50.860;0.258;2022-09-19T18:36:14;14.30;99.90